createdAt,value
2018-12-26T00:00:52.128Z,79.56
2018-12-26T00:01:52.120Z,79.77
2018-12-26T00:02:52.159Z,79.46
2018-12-26T00:03:52.102Z,79.97
2018-12-26T00:04:52.084Z,79.56
2018-12-26T00:05:52.073Z,79.56
2018-12-26T00:06:52.063Z,79.77
2018-12-26T00:07:52.051Z,79.36
2018-12-26T00:08:52.060Z,79.46
2018-12-26T00:09:52.030Z,79.46
2018-12-26T00:10:52.019Z,79.46
2018-12-26T00:11:52.010Z,79.56
2018-12-26T00:12:52.010Z,79.25
2018-12-26T00:13:52.022Z,79.46
2018-12-26T00:14:51.974Z,79.15
2018-12-26T00:15:51.976Z,79.66
2018-12-26T00:16:51.957Z,79.46
2018-12-26T00:17:51.943Z,79.46
2018-12-26T00:18:51.932Z,79.66
2018-12-26T00:19:52.007Z,79.46
2018-12-26T00:20:51.912Z,79.36
2018-12-26T00:21:51.901Z,79.36
2018-12-26T00:22:51.891Z,79.46
2018-12-26T00:23:51.919Z,79.36
2018-12-26T00:24:51.869Z,79.56
2018-12-26T00:25:51.855Z,79.15
2018-12-26T00:26:51.849Z,79.87
2018-12-26T00:27:51.836Z,79.77
2018-12-26T00:28:51.826Z,79.25
2018-12-26T00:29:51.854Z,79.63
2018-12-26T00:30:51.803Z,79.66
2018-12-26T00:31:51.792Z,79.66
2018-12-26T00:32:51.777Z,79.66
2018-12-26T00:33:51.765Z,79.52
2018-12-26T00:34:51.766Z,79.46
2018-12-26T00:35:51.753Z,79.36
2018-12-26T00:36:51.772Z,79.52
2018-12-26T00:37:51.727Z,79.52
2018-12-26T00:38:51.711Z,79.46
2018-12-26T00:39:51.706Z,79.66
2018-12-26T00:40:51.739Z,79.66
2018-12-26T00:41:51.678Z,79.63
2018-12-26T00:42:51.666Z,79.63
2018-12-26T00:43:51.660Z,79.42
2018-12-26T00:44:51.645Z,79.42
2018-12-26T00:45:51.637Z,79.63
2018-12-26T00:46:51.660Z,79.73
2018-12-26T00:47:51.614Z,79.56
2018-12-26T00:48:51.606Z,79.87
2018-12-26T00:49:51.590Z,79.63
2018-12-26T00:50:51.580Z,79.73
2018-12-26T00:51:51.671Z,79.94
2018-12-26T00:52:51.593Z,79.56
2018-12-26T00:53:51.545Z,79.52
2018-12-26T00:54:51.537Z,79.66
2018-12-26T00:55:51.528Z,79.42
2018-12-26T00:56:51.518Z,79.46
2018-12-26T00:57:51.503Z,79.52
2018-12-26T00:58:51.506Z,79.52
2018-12-26T00:59:51.486Z,79.63
2018-12-26T01:00:51.475Z,79.77
2018-12-26T01:01:51.459Z,79.52
2018-12-26T01:02:51.447Z,79.52
2018-12-26T01:03:51.561Z,79.73
2018-12-26T01:04:51.449Z,79.63
2018-12-26T01:05:51.414Z,79.63
2018-12-26T01:06:51.402Z,79.32
2018-12-26T01:07:51.395Z,79.52
2018-12-26T01:08:51.387Z,79.52
2018-12-26T01:09:51.392Z,79.52
2018-12-26T01:10:51.360Z,79.83
2018-12-26T01:11:51.347Z,79.73
2018-12-26T01:12:51.342Z,80.15
2018-12-26T01:13:51.362Z,79.83
2018-12-26T01:14:51.314Z,79.83
2018-12-26T01:15:51.305Z,79.87
2018-12-26T01:16:51.296Z,79.83
2018-12-26T01:17:51.286Z,79.83
2018-12-26T01:18:51.275Z,80.46
2018-12-26T01:19:51.304Z,79.97
2018-12-26T01:20:51.255Z,80.56
2018-12-26T01:21:51.236Z,79.87
2018-12-26T01:22:51.226Z,80.18
2018-12-26T01:23:51.220Z,80.29
2018-12-26T01:24:51.205Z,80.08
2018-12-26T01:25:51.218Z,79.97
2018-12-26T01:26:51.186Z,80.04
2018-12-26T01:27:51.224Z,79.97
2018-12-26T01:28:51.164Z,79.94
2018-12-26T01:29:51.150Z,79.97
2018-12-26T01:30:51.138Z,80.04
2018-12-26T01:31:51.131Z,79.97
2018-12-26T01:32:51.121Z,80.04
2018-12-26T01:33:51.127Z,80.04
2018-12-26T01:34:51.100Z,79.83
2018-12-26T01:35:51.089Z,79.94
2018-12-26T01:36:51.083Z,79.73
2018-12-26T01:37:51.085Z,80.04
2018-12-26T01:38:51.065Z,80.60
2018-12-26T01:39:51.054Z,80.04
2018-12-26T01:40:51.035Z,80.18
2018-12-26T01:41:51.022Z,80.04
2018-12-26T01:42:51.026Z,80.04
2018-12-26T01:43:51.004Z,79.83
2018-12-26T01:44:51.002Z,79.83
2018-12-26T01:45:50.974Z,79.83
2018-12-26T01:46:50.982Z,79.83
2018-12-26T01:47:50.956Z,80.25
2018-12-26T01:48:50.942Z,80.25
2018-12-26T01:49:50.930Z,80.15
2018-12-26T01:50:50.927Z,80.18
2018-12-26T01:51:50.949Z,79.87
2018-12-26T01:52:50.902Z,80.04
2018-12-26T01:53:50.891Z,80.25
2018-12-26T01:54:50.881Z,80.15
2018-12-26T01:55:50.876Z,79.83
2018-12-26T01:56:50.858Z,80.56
2018-12-26T01:57:50.863Z,80.29
2018-12-26T01:58:50.833Z,79.94
2018-12-26T01:59:50.821Z,80.56
2018-12-26T02:00:50.870Z,79.87
2018-12-26T02:01:50.804Z,80.25
2018-12-26T02:02:50.791Z,80.18
2018-12-26T02:03:50.785Z,79.63
2018-12-26T02:04:50.773Z,79.87
2018-12-26T02:05:50.761Z,79.87
2018-12-26T02:06:50.764Z,79.87
2018-12-26T02:07:50.760Z,79.83
2018-12-26T02:08:50.726Z,79.87
2018-12-26T02:09:50.713Z,79.77
2018-12-26T02:10:50.707Z,79.83
2018-12-26T02:11:50.695Z,80.08
2018-12-26T02:12:50.706Z,79.83
2018-12-26T02:13:50.683Z,79.87
2018-12-26T02:14:50.659Z,79.87
2018-12-26T02:15:50.650Z,79.77
2018-12-26T02:16:50.680Z,79.87
2018-12-26T02:17:50.633Z,79.63
2018-12-26T02:18:50.620Z,79.66
2018-12-26T02:19:50.619Z,79.87
2018-12-26T02:20:50.597Z,79.97
2018-12-26T02:21:50.586Z,80.18
2018-12-26T02:22:50.593Z,79.97
2018-12-26T02:23:50.567Z,79.97
2018-12-26T02:24:50.555Z,79.87
2018-12-26T02:25:50.540Z,79.77
2018-12-26T02:26:50.532Z,79.97
2018-12-26T02:27:50.541Z,79.77
2018-12-26T02:28:50.511Z,80.60
2018-12-26T02:29:50.495Z,80.56
2018-12-26T02:30:50.483Z,80.60
2018-12-26T02:31:50.487Z,80.60
2018-12-26T02:32:50.470Z,80.60
2018-12-26T02:33:50.501Z,80.08
2018-12-26T02:34:50.447Z,80.18
2018-12-26T02:35:50.435Z,79.97
2018-12-26T02:36:50.417Z,80.08
2018-12-26T02:37:50.408Z,80.08
2018-12-26T02:38:50.395Z,80.18
2018-12-26T02:39:50.405Z,79.97
2018-12-26T02:40:50.461Z,79.97
2018-12-26T02:41:50.367Z,79.97
2018-12-26T02:42:50.351Z,79.97
2018-12-26T02:43:50.341Z,80.08
2018-12-26T02:44:50.349Z,80.29
2018-12-26T02:45:50.339Z,80.49
2018-12-26T02:46:50.325Z,80.39
2018-12-26T02:47:50.300Z,80.29
2018-12-26T02:48:50.297Z,80.08
2018-12-26T02:49:50.304Z,80.39
2018-12-26T02:50:50.301Z,80.39
2018-12-26T02:51:50.253Z,80.39
2018-12-26T02:52:50.262Z,80.29
2018-12-26T02:53:50.235Z,80.18
2018-12-26T02:54:50.220Z,80.18
2018-12-26T02:55:50.216Z,80.39
2018-12-26T02:56:50.198Z,80.32
2018-12-26T02:57:50.228Z,80.29
2018-12-26T02:58:50.184Z,80.39
2018-12-26T02:59:50.172Z,80.39
2018-12-26T03:00:50.169Z,80.29
2018-12-26T03:01:50.143Z,80.70
2018-12-26T03:02:50.133Z,80.70
2018-12-26T03:03:50.140Z,80.39
2018-12-26T03:04:50.110Z,80.49
2018-12-26T03:05:50.104Z,81.11
2018-12-26T03:06:50.102Z,81.11
2018-12-26T03:07:50.076Z,81.21
2018-12-26T03:08:50.089Z,81.01
2018-12-26T03:09:50.059Z,81.01
2018-12-26T03:10:50.042Z,81.25
2018-12-26T03:11:50.033Z,80.94
2018-12-26T03:12:50.056Z,81.11
2018-12-26T03:13:50.010Z,80.90
2018-12-26T03:14:50.019Z,81.52
2018-12-26T03:15:49.991Z,80.60
2018-12-26T03:16:49.981Z,80.90
2018-12-26T03:17:49.978Z,80.90
2018-12-26T03:18:49.966Z,80.70
2018-12-26T03:19:49.975Z,81.21
2018-12-26T03:20:49.933Z,81.21
2018-12-26T03:21:49.928Z,81.21
2018-12-26T03:22:49.912Z,81.11
2018-12-26T03:23:49.906Z,81.11
2018-12-26T03:24:49.891Z,80.80
2018-12-26T03:25:49.896Z,80.90
2018-12-26T03:26:55.971Z,81.01
2018-12-26T03:27:50.856Z,80.70
2018-12-26T03:28:49.849Z,80.94
2018-12-26T03:29:49.875Z,81.63
2018-12-26T03:30:49.825Z,81.52
2018-12-26T03:31:49.830Z,81.73
2018-12-26T03:32:49.799Z,81.52
2018-12-26T03:33:49.793Z,81.42
2018-12-26T03:34:49.787Z,81.32
2018-12-26T03:35:49.789Z,81.32
2018-12-26T03:36:49.804Z,81.42
2018-12-26T03:37:49.743Z,81.84
2018-12-26T03:38:49.734Z,81.98
2018-12-26T03:39:49.729Z,81.77
2018-12-26T03:40:49.713Z,81.11
2018-12-26T03:41:49.703Z,81.73
2018-12-26T03:42:49.723Z,81.35
2018-12-26T03:43:49.684Z,81.67
2018-12-26T03:44:49.675Z,81.56
2018-12-26T03:45:49.656Z,81.52
2018-12-26T03:46:49.655Z,81.32
2018-12-26T03:47:49.642Z,82.04
2018-12-26T03:48:49.634Z,81.94
2018-12-26T03:49:49.631Z,81.42
2018-12-26T03:50:49.610Z,81.94
2018-12-26T03:51:49.594Z,81.52
2018-12-26T03:52:49.586Z,81.52
2018-12-26T03:53:49.590Z,81.94
2018-12-26T03:54:49.556Z,81.11
2018-12-26T03:55:49.546Z,81.94
2018-12-26T03:56:49.536Z,81.42
2018-12-26T03:57:49.531Z,81.42
2018-12-26T03:58:49.564Z,81.63
2018-12-26T03:59:49.507Z,81.84
2018-12-26T04:00:49.490Z,81.63
2018-12-26T04:01:49.488Z,81.94
2018-12-26T04:02:49.473Z,81.56
2018-12-26T04:03:49.456Z,81.94
2018-12-26T04:04:49.471Z,81.98
2018-12-26T04:05:49.440Z,81.73
2018-12-26T04:06:49.427Z,81.84
2018-12-26T04:07:49.418Z,81.94
2018-12-26T04:08:49.402Z,82.04
2018-12-26T04:09:49.430Z,81.63
2018-12-26T04:10:49.381Z,81.84
2018-12-26T04:11:49.373Z,81.63
2018-12-26T04:12:49.363Z,81.84
2018-12-26T04:13:49.349Z,81.63
2018-12-26T04:14:49.341Z,81.94
2018-12-26T04:15:49.371Z,81.84
2018-12-26T04:16:49.318Z,81.73
2018-12-26T04:17:49.304Z,82.04
2018-12-26T04:18:49.290Z,81.73
2018-12-26T04:19:49.282Z,82.25
2018-12-26T04:20:49.269Z,81.84
2018-12-26T04:21:49.283Z,81.84
2018-12-26T04:22:49.247Z,81.73
2018-12-26T04:23:49.242Z,82.04
2018-12-26T04:24:49.225Z,81.87
2018-12-26T04:25:49.241Z,81.84
2018-12-26T04:26:49.207Z,81.84
2018-12-26T04:27:49.207Z,81.73
2018-12-26T04:28:49.184Z,82.15
2018-12-26T04:29:49.173Z,81.94
2018-12-26T04:30:49.208Z,82.04
2018-12-26T04:31:49.148Z,82.35
2018-12-26T04:32:49.140Z,82.25
2018-12-26T04:33:49.126Z,82.04
2018-12-26T04:34:49.113Z,82.35
2018-12-26T04:35:49.160Z,82.15
2018-12-26T04:36:49.107Z,82.50
2018-12-26T04:37:49.082Z,82.04
2018-12-26T04:38:49.069Z,82.15
2018-12-26T04:39:49.060Z,82.60
2018-12-26T04:40:49.049Z,82.60
2018-12-26T04:41:49.082Z,82.97
2018-12-26T04:42:49.029Z,82.97
2018-12-26T04:43:51.362Z,83.07
2018-12-26T04:44:49.015Z,83.18
2018-12-26T04:45:48.993Z,83.18
2018-12-26T04:46:48.986Z,83.42
2018-12-26T04:47:48.993Z,83.42
2018-12-26T04:48:48.968Z,83.53
2018-12-26T04:49:48.955Z,83.73
2018-12-26T04:50:48.943Z,83.42
2018-12-26T04:51:48.930Z,83.73
2018-12-26T04:52:48.956Z,83.94
2018-12-26T04:53:48.904Z,83.94
2018-12-26T04:54:48.908Z,84.05
2018-12-26T04:55:48.887Z,83.94
2018-12-26T04:56:48.880Z,83.94
2018-12-26T04:57:48.862Z,83.94
2018-12-26T04:58:48.872Z,84.15
2018-12-26T04:59:48.839Z,84.05
2018-12-26T05:00:48.829Z,84.25
2018-12-26T05:01:48.823Z,84.36
2018-12-26T05:02:48.822Z,84.25
2018-12-26T05:03:48.843Z,84.66
2018-12-26T05:04:48.805Z,84.45
2018-12-26T05:05:48.772Z,84.56
2018-12-26T05:06:48.761Z,84.56
2018-12-26T05:07:48.761Z,84.66
2018-12-26T05:08:48.738Z,84.36
2018-12-26T05:09:48.748Z,84.39
2018-12-26T05:10:48.717Z,84.36
2018-12-26T05:11:48.782Z,84.60
2018-12-26T05:12:48.702Z,84.81
2018-12-26T05:13:48.687Z,85.22
2018-12-26T05:14:48.673Z,85.32
2018-12-26T05:15:48.683Z,85.32
2018-12-26T05:16:48.657Z,85.53
2018-12-26T05:17:48.839Z,84.97
2018-12-26T05:18:48.634Z,85.39
2018-12-26T05:19:48.625Z,85.42
2018-12-26T05:20:48.623Z,85.22
2018-12-26T05:21:48.600Z,85.53
2018-12-26T05:22:48.589Z,86.05
2018-12-26T05:23:48.577Z,85.42
2018-12-26T05:24:48.562Z,85.32
2018-12-26T05:25:48.577Z,86.36
2018-12-26T05:26:48.544Z,86.15
2018-12-26T05:27:48.534Z,85.84
2018-12-26T05:28:48.525Z,85.63
2018-12-26T05:29:48.508Z,86.36
2018-12-26T05:30:48.544Z,86.25
2018-12-26T05:31:48.495Z,86.46
2018-12-26T05:32:48.481Z,86.40
2018-12-26T05:33:48.462Z,85.84
2018-12-26T05:34:48.457Z,86.57
2018-12-26T05:35:48.440Z,86.67
2018-12-26T05:36:48.452Z,86.46
2018-12-26T05:37:48.423Z,86.36
2018-12-26T05:38:48.413Z,86.46
2018-12-26T05:39:48.397Z,86.15
2018-12-26T05:40:48.396Z,86.57
2018-12-26T05:41:48.393Z,87.02
2018-12-26T05:42:48.414Z,87.29
2018-12-26T05:43:48.355Z,87.60
2018-12-26T05:44:48.340Z,87.49
2018-12-26T05:45:48.330Z,87.54
2018-12-26T05:46:48.325Z,87.43
2018-12-26T05:47:48.308Z,87.74
2018-12-26T05:48:48.314Z,87.60
2018-12-26T05:49:48.293Z,88.22
2018-12-26T05:50:48.279Z,88.43
2018-12-26T05:51:48.266Z,88.64
2018-12-26T05:52:48.259Z,88.67
2018-12-26T05:53:48.260Z,88.78
2018-12-26T05:54:48.237Z,88.36
2018-12-26T05:55:48.223Z,88.57
2018-12-26T05:56:48.216Z,88.53
2018-12-26T05:57:48.200Z,88.57
2018-12-26T05:58:48.207Z,88.46
2018-12-26T05:59:48.184Z,88.57
2018-12-26T06:00:48.162Z,88.98
2018-12-26T06:01:48.158Z,89.19
2018-12-26T06:02:48.142Z,88.98
2018-12-26T06:03:48.130Z,88.88
2018-12-26T06:04:48.141Z,89.29
2018-12-26T06:05:48.108Z,89.29
2018-12-26T06:06:48.103Z,89.71
2018-12-26T06:07:48.088Z,89.71
2018-12-26T06:08:48.077Z,89.61
2018-12-26T06:09:48.085Z,89.81
2018-12-26T06:10:48.057Z,90.02
2018-12-26T06:11:48.042Z,90.33
2018-12-26T06:12:48.043Z,90.23
2018-12-26T06:13:48.024Z,90.64
2018-12-26T06:14:48.030Z,90.74
2018-12-26T06:15:48.014Z,90.64
2018-12-26T06:16:47.988Z,91.05
2018-12-26T06:17:47.976Z,90.68
2018-12-26T06:18:47.971Z,91.26
2018-12-26T06:19:47.959Z,90.99
2018-12-26T06:20:47.993Z,91.09
2018-12-26T06:21:47.933Z,90.89
2018-12-26T06:22:47.924Z,90.78
2018-12-26T06:23:47.915Z,91.30
2018-12-26T06:24:47.904Z,91.09
2018-12-26T06:25:47.895Z,91.51
2018-12-26T06:26:47.896Z,91.41
2018-12-26T06:27:51.569Z,91.20
2018-12-26T06:28:47.859Z,92.03
2018-12-26T06:29:47.852Z,92.03
2018-12-26T06:30:47.837Z,92.13
2018-12-26T06:31:47.848Z,92.44
2018-12-26T06:32:47.824Z,92.24
2018-12-26T06:33:47.800Z,92.44
2018-12-26T06:34:47.792Z,92.13
2018-12-26T06:35:47.784Z,91.61
2018-12-26T06:36:47.813Z,91.93
2018-12-26T06:37:47.759Z,92.34
2018-12-26T06:38:47.768Z,92.24
2018-12-26T06:39:47.739Z,92.44
2018-12-26T06:40:47.728Z,92.13
2018-12-26T06:41:47.763Z,92.55
2018-12-26T06:42:47.705Z,92.85
2018-12-26T06:43:47.695Z,93.27
2018-12-26T06:44:47.687Z,93.16
2018-12-26T06:45:47.678Z,92.96
2018-12-26T06:46:47.656Z,92.85
2018-12-26T06:47:47.694Z,93.16
2018-12-26T06:48:47.642Z,93.16
2018-12-26T06:49:47.625Z,93.68
2018-12-26T06:50:47.618Z,93.06
2018-12-26T06:51:47.612Z,93.52
2018-12-26T06:52:47.601Z,93.83
2018-12-26T06:53:47.598Z,93.83
2018-12-26T06:54:47.569Z,93.52
2018-12-26T06:55:47.565Z,93.79
2018-12-26T06:56:47.551Z,93.68
2018-12-26T06:57:47.543Z,93.58
2018-12-26T06:58:47.563Z,94.24
2018-12-26T06:59:47.519Z,93.73
2018-12-26T07:00:47.503Z,94.56
2018-12-26T07:01:47.496Z,94.56
2018-12-26T07:02:47.483Z,94.66
2018-12-26T07:03:47.479Z,94.56
2018-12-26T07:04:47.484Z,94.14
2018-12-26T07:05:47.469Z,93.99
2018-12-26T07:06:47.436Z,94.24
2018-12-26T07:07:47.430Z,94.87
2018-12-26T07:08:47.429Z,94.72
2018-12-26T07:09:47.410Z,95.14
2018-12-26T07:10:47.398Z,94.14
2018-12-26T07:11:47.403Z,94.35
2018-12-26T07:12:47.374Z,94.66
2018-12-26T07:13:47.360Z,94.56
2018-12-26T07:14:47.355Z,94.45
2018-12-26T07:15:47.339Z,94.45
2018-12-26T07:16:47.339Z,94.56
2018-12-26T07:17:47.318Z,94.76
2018-12-26T07:18:47.304Z,94.51
2018-12-26T07:19:47.299Z,94.41
2018-12-26T07:20:47.286Z,94.62
2018-12-26T07:21:47.955Z,94.56
2018-12-26T07:22:47.269Z,94.41
2018-12-26T07:23:47.256Z,94.41
2018-12-26T07:24:47.242Z,93.99
2018-12-26T07:25:47.228Z,93.27
2018-12-26T07:26:47.257Z,93.37
2018-12-26T07:27:47.212Z,93.58
2018-12-26T07:28:47.197Z,93.58
2018-12-26T07:29:47.184Z,93.68
2018-12-26T07:30:47.174Z,93.48
2018-12-26T07:31:47.170Z,93.37
2018-12-26T07:32:47.177Z,93.37
2018-12-26T07:33:47.140Z,93.62
2018-12-26T07:34:47.156Z,93.37
2018-12-26T07:35:47.132Z,93.31
2018-12-26T07:36:47.114Z,93.79
2018-12-26T07:37:47.109Z,93.48
2018-12-26T07:38:47.087Z,93.73
2018-12-26T07:39:47.082Z,93.68
2018-12-26T07:40:47.082Z,94.31
2018-12-26T07:41:47.058Z,93.68
2018-12-26T07:42:47.069Z,93.37
2018-12-26T07:43:47.038Z,93.27
2018-12-26T07:44:47.021Z,93.68
2018-12-26T07:45:47.010Z,94.20
2018-12-26T07:46:47.004Z,93.99
2018-12-26T07:47:47.004Z,94.10
2018-12-26T07:48:46.978Z,93.37
2018-12-26T07:49:46.972Z,93.58
2018-12-26T07:50:46.960Z,93.58
2018-12-26T07:51:46.949Z,93.37
2018-12-26T07:52:46.944Z,93.68
2018-12-26T07:53:46.922Z,94.31
2018-12-26T07:54:46.953Z,94.51
2018-12-26T07:55:46.906Z,94.31
2018-12-26T07:56:46.906Z,94.31
2018-12-26T07:57:46.883Z,94.51
2018-12-26T07:58:46.871Z,94.51
2018-12-26T07:59:46.866Z,94.72
2018-12-26T08:00:46.863Z,94.31
2018-12-26T08:01:46.838Z,94.41
2018-12-26T08:02:46.840Z,95.44
2018-12-26T08:03:46.828Z,94.82
2018-12-26T08:04:46.806Z,95.03
2018-12-26T08:05:46.819Z,95.18
2018-12-26T08:06:46.784Z,95.34
2018-12-26T08:07:46.768Z,95.34
2018-12-26T08:08:46.756Z,95.14
2018-12-26T08:09:46.753Z,95.44
2018-12-26T08:10:46.786Z,95.24
2018-12-26T08:11:46.725Z,94.93
2018-12-26T08:12:46.712Z,95.54
2018-12-26T08:13:46.712Z,95.96
2018-12-26T08:14:46.693Z,95.65
2018-12-26T08:15:46.685Z,95.65
2018-12-26T08:16:46.690Z,95.75
2018-12-26T08:17:46.666Z,96.01
2018-12-26T08:18:46.652Z,95.75
2018-12-26T08:19:46.642Z,95.54
2018-12-26T08:20:46.644Z,95.96
2018-12-26T08:21:46.651Z,96.11
2018-12-26T08:22:46.606Z,96.11
2018-12-26T08:23:46.597Z,96.27
2018-12-26T08:24:46.587Z,95.96
2018-12-26T08:25:46.571Z,95.75
2018-12-26T08:26:46.564Z,96.17
2018-12-26T08:27:46.566Z,96.42
2018-12-26T08:28:46.544Z,96.27
2018-12-26T08:29:46.525Z,95.96
2018-12-26T08:30:46.535Z,96.48
2018-12-26T08:31:46.560Z,95.96
2018-12-26T08:32:46.497Z,95.96
2018-12-26T08:33:46.488Z,96.37
2018-12-26T08:34:46.473Z,96.48
2018-12-26T08:35:46.469Z,96.27
2018-12-26T08:36:46.454Z,96.58
2018-12-26T08:37:46.466Z,96.89
2018-12-26T08:38:46.431Z,96.69
2018-12-26T08:39:46.417Z,97.00
2018-12-26T08:40:46.412Z,97.00
2018-12-26T08:41:46.402Z,97.20
2018-12-26T08:42:46.443Z,97.20
2018-12-26T08:43:46.373Z,97.20
2018-12-26T08:44:46.368Z,97.52
2018-12-26T08:45:46.356Z,97.20
2018-12-26T08:46:46.345Z,97.20
2018-12-26T08:47:46.334Z,97.52
2018-12-26T08:48:46.367Z,97.41
2018-12-26T08:49:46.315Z,97.66
2018-12-26T08:50:46.297Z,97.62
2018-12-26T08:51:46.293Z,98.03
2018-12-26T08:52:46.273Z,97.83
2018-12-26T08:53:46.263Z,97.77
2018-12-26T08:54:46.268Z,97.93
2018-12-26T08:55:46.246Z,97.52
2018-12-26T08:56:46.247Z,97.31
2018-12-26T08:57:46.334Z,97.62
2018-12-26T08:58:46.232Z,97.62
2018-12-26T08:59:46.215Z,97.31
2018-12-26T09:00:46.187Z,97.52
2018-12-26T09:01:46.200Z,97.45
2018-12-26T09:02:46.171Z,97.62
2018-12-26T09:03:46.153Z,97.20
2018-12-26T09:04:46.167Z,97.41
2018-12-26T09:05:46.133Z,97.52
2018-12-26T09:06:46.119Z,97.52
2018-12-26T09:07:46.109Z,97.62
2018-12-26T09:08:46.098Z,97.62
2018-12-26T09:09:46.093Z,97.97
2018-12-26T09:10:46.097Z,97.62
2018-12-26T09:11:46.065Z,97.66
2018-12-26T09:12:46.058Z,98.13
2018-12-26T09:13:46.043Z,98.18
2018-12-26T09:14:46.030Z,97.93
2018-12-26T09:15:46.048Z,97.62
2018-12-26T09:16:46.008Z,97.62
2018-12-26T09:17:46.014Z,97.93
2018-12-26T09:18:45.991Z,98.24
2018-12-26T09:19:45.976Z,97.66
2018-12-26T09:20:45.968Z,97.20
2018-12-26T09:21:45.959Z,97.10
2018-12-26T09:22:45.961Z,97.45
2018-12-26T09:23:45.930Z,97.52
2018-12-26T09:24:45.920Z,97.72
2018-12-26T09:25:45.908Z,97.83
2018-12-26T09:26:45.938Z,97.62
2018-12-26T09:27:45.885Z,97.83
2018-12-26T09:28:45.876Z,97.93
2018-12-26T09:29:45.865Z,97.93
2018-12-26T09:30:45.857Z,97.93
2018-12-26T09:31:45.848Z,98.03
2018-12-26T09:32:45.885Z,98.13
2018-12-26T09:33:45.822Z,97.93
2018-12-26T09:34:45.809Z,97.83
2018-12-26T09:35:45.805Z,97.97
2018-12-26T09:36:45.795Z,98.28
2018-12-26T09:37:45.780Z,98.55
2018-12-26T09:38:45.786Z,98.65
2018-12-26T09:39:45.760Z,98.24
2018-12-26T09:40:45.743Z,98.13
2018-12-26T09:41:45.737Z,98.34
2018-12-26T09:42:45.745Z,97.93
2018-12-26T09:43:45.738Z,98.55
2018-12-26T09:44:54.140Z,98.03
2018-12-26T09:45:46.709Z,97.83
2018-12-26T09:46:45.677Z,97.83
2018-12-26T09:47:45.669Z,97.83
2018-12-26T09:48:45.655Z,98.09
2018-12-26T09:49:45.666Z,98.13
2018-12-26T09:50:45.651Z,97.72
2018-12-26T09:51:45.627Z,97.72
2018-12-26T09:52:45.612Z,98.03
2018-12-26T09:53:45.603Z,98.13
2018-12-26T09:54:45.596Z,98.24
2018-12-26T09:55:45.596Z,97.99
2018-12-26T09:56:45.569Z,98.24
2018-12-26T09:57:45.565Z,97.67
2018-12-26T09:58:52.499Z,97.57
2018-12-26T09:59:46.535Z,97.78
2018-12-26T10:00:45.561Z,97.67
2018-12-26T10:01:45.514Z,97.62
2018-12-26T10:02:45.507Z,97.78
2018-12-26T10:03:45.594Z,97.57
2018-12-26T10:04:45.487Z,97.78
2018-12-26T10:05:45.486Z,97.78
2018-12-26T10:06:45.477Z,97.78
2018-12-26T10:07:45.446Z,98.19
2018-12-26T10:08:45.454Z,97.62
2018-12-26T10:09:45.435Z,97.57
2018-12-26T10:10:45.415Z,98.09
2018-12-26T10:11:45.401Z,98.19
2018-12-26T10:12:45.429Z,98.40
2018-12-26T10:13:45.381Z,97.99
2018-12-26T10:14:45.372Z,98.40
2018-12-26T10:15:45.366Z,98.82
2018-12-26T10:16:45.345Z,98.61
2018-12-26T10:17:45.333Z,98.50
2018-12-26T10:18:45.342Z,98.50
2018-12-26T10:19:45.311Z,98.71
2018-12-26T10:20:45.310Z,98.71
2018-12-26T10:21:45.290Z,98.40
2018-12-26T10:22:45.284Z,98.82
2018-12-26T10:23:45.289Z,98.30
2018-12-26T10:24:45.257Z,98.30
2018-12-26T10:25:45.246Z,98.92
2018-12-26T10:26:45.237Z,98.82
2018-12-26T10:27:45.226Z,98.40
2018-12-26T10:28:45.218Z,98.50
2018-12-26T10:29:45.221Z,98.61
2018-12-26T10:30:45.196Z,98.40
2018-12-26T10:31:45.181Z,98.40
2018-12-26T10:32:45.189Z,98.71
2018-12-26T10:33:45.157Z,98.50
2018-12-26T10:34:45.151Z,98.40
2018-12-26T10:35:45.141Z,98.61
2018-12-26T10:36:45.125Z,98.61
2018-12-26T10:37:45.179Z,98.82
2018-12-26T10:38:45.107Z,98.71
2018-12-26T10:39:45.095Z,98.30
2018-12-26T10:40:45.082Z,98.50
2018-12-26T10:41:45.069Z,98.61
2018-12-26T10:42:46.083Z,98.50
2018-12-26T10:43:45.068Z,98.71
2018-12-26T10:44:45.042Z,98.50
2018-12-26T10:45:45.027Z,98.50
2018-12-26T10:46:45.019Z,98.56
2018-12-26T10:47:45.009Z,98.61
2018-12-26T10:48:45.018Z,97.84
2018-12-26T10:49:44.986Z,98.50
2018-12-26T10:50:44.976Z,98.50
2018-12-26T10:51:44.963Z,98.50
2018-12-26T10:52:44.953Z,98.50
2018-12-26T10:53:44.998Z,98.40
2018-12-26T10:54:44.925Z,98.30
2018-12-26T10:55:44.915Z,98.50
2018-12-26T10:56:44.903Z,98.87
2018-12-26T10:57:44.956Z,98.40
2018-12-26T10:58:44.886Z,98.92
2018-12-26T10:59:44.908Z,98.71
2018-12-26T11:00:44.861Z,98.77
2018-12-26T11:01:44.847Z,98.82
2018-12-26T11:02:44.840Z,98.87
2018-12-26T11:03:44.825Z,98.56
2018-12-26T11:04:44.815Z,98.56
2018-12-26T11:05:44.819Z,98.82
2018-12-26T11:06:44.797Z,98.46
2018-12-26T11:07:44.786Z,98.56
2018-12-26T11:08:44.771Z,98.66
2018-12-26T11:09:44.775Z,98.87
2018-12-26T11:10:44.750Z,98.82
2018-12-26T11:11:44.742Z,99.18
2018-12-26T11:12:44.726Z,99.43
2018-12-26T11:13:44.716Z,99.54
2018-12-26T11:14:44.720Z,99.43
2018-12-26T11:15:44.691Z,98.77
2018-12-26T11:16:44.684Z,98.82
2018-12-26T11:17:44.676Z,99.13
2018-12-26T11:18:44.661Z,99.23
2018-12-26T11:19:44.668Z,98.92
2018-12-26T11:20:44.646Z,98.82
2018-12-26T11:21:44.654Z,99.13
2018-12-26T11:22:44.628Z,98.92
2018-12-26T11:23:44.605Z,98.87
2018-12-26T11:24:44.598Z,98.77
2018-12-26T11:25:44.589Z,99.13
2018-12-26T11:26:44.590Z,99.13
2018-12-26T11:27:44.568Z,99.39
2018-12-26T11:28:44.550Z,99.23
2018-12-26T11:29:44.537Z,99.23
2018-12-26T11:30:44.531Z,99.33
2018-12-26T11:31:44.537Z,99.39
2018-12-26T11:32:44.506Z,99.39
2018-12-26T11:33:44.495Z,98.82
2018-12-26T11:34:44.503Z,98.61
2018-12-26T11:35:44.476Z,98.61
2018-12-26T11:36:44.461Z,98.46
2018-12-26T11:37:44.469Z,98.61
2018-12-26T11:38:44.443Z,98.46
2018-12-26T11:39:44.433Z,98.46
2018-12-26T11:40:44.415Z,98.46
2018-12-26T11:41:44.413Z,98.40
2018-12-26T11:42:44.414Z,98.87
2018-12-26T11:43:44.389Z,98.77
2018-12-26T11:44:44.378Z,98.35
2018-12-26T11:45:44.362Z,98.56
2018-12-26T11:46:44.354Z,98.50
2018-12-26T11:47:44.359Z,98.87
2018-12-26T11:48:44.334Z,98.87
2018-12-26T11:49:44.315Z,98.77
2018-12-26T11:50:44.312Z,98.77
2018-12-26T11:51:44.310Z,98.40
2018-12-26T11:52:44.283Z,98.61
2018-12-26T11:53:44.278Z,98.77
2018-12-26T11:54:44.268Z,98.66
2018-12-26T11:55:44.255Z,98.82
2018-12-26T11:56:44.260Z,98.97
2018-12-26T11:57:44.236Z,98.66
2018-12-26T11:58:44.218Z,98.87
2018-12-26T11:59:44.210Z,99.74
2018-12-26T12:00:44.201Z,99.49
2018-12-26T12:01:44.237Z,99.99
2018-12-26T12:02:44.174Z,99.39
2018-12-26T12:03:44.167Z,98.52
2018-12-26T12:04:44.157Z,98.05
2018-12-26T12:05:44.145Z,98.25
2018-12-26T12:06:44.135Z,98.56
2018-12-26T12:07:44.158Z,98.56
2018-12-26T12:08:44.113Z,98.97
2018-12-26T12:09:44.100Z,98.97
2018-12-26T12:10:44.184Z,98.56
2018-12-26T12:11:44.075Z,98.97
2018-12-26T12:12:44.064Z,98.56
2018-12-26T12:13:44.075Z,98.87
2018-12-26T12:14:44.045Z,98.87
2018-12-26T12:15:44.030Z,99.29
2018-12-26T12:16:44.026Z,98.97
2018-12-26T12:17:44.018Z,99.29
2018-12-26T12:18:44.004Z,99.18
2018-12-26T12:19:45.188Z,99.39
2018-12-26T12:20:43.985Z,99.91
2018-12-26T12:21:43.969Z,99.80
2018-12-26T12:22:43.971Z,99.49
2018-12-26T12:23:43.947Z,99.49
2018-12-26T12:24:43.933Z,99.39
2018-12-26T12:25:43.924Z,99.49
2018-12-26T12:26:43.908Z,99.99
2018-12-26T12:27:43.930Z,99.99
2018-12-26T12:28:43.890Z,99.60
2018-12-26T12:29:43.874Z,99.99
2018-12-26T12:30:43.976Z,99.95
2018-12-26T12:31:44.023Z,99.99
2018-12-26T12:32:43.862Z,99.99
2018-12-26T12:33:43.830Z,99.99
2018-12-26T12:34:43.836Z,99.99
2018-12-26T12:35:43.807Z,99.99
2018-12-26T12:36:43.803Z,99.99
2018-12-26T12:37:43.792Z,99.99
2018-12-26T12:38:43.778Z,99.99
2018-12-26T12:39:43.786Z,99.99
2018-12-26T12:40:43.754Z,99.99
2018-12-26T12:41:43.742Z,99.99
2018-12-26T12:42:43.730Z,99.99
2018-12-26T12:43:43.725Z,99.99
2018-12-26T12:44:43.748Z,99.99
2018-12-26T12:45:43.700Z,99.99
2018-12-26T12:46:43.691Z,99.99
2018-12-26T12:47:43.684Z,99.99
2018-12-26T12:48:43.669Z,99.99
2018-12-26T12:49:43.658Z,99.99
2018-12-26T12:50:43.663Z,99.99
2018-12-26T12:51:43.632Z,99.99
2018-12-26T12:52:43.625Z,99.99